MUCC

Details ICAO MUCC
Name JARDINES DEL REY
Region Cuba
Timezone America/Havana (UTC-5.0)
Plans Departing 32
Arriving 90
Stats Elevation 13 ft / 4 m (AMSL)
Location 22.460945° -78.328602°
Runways 1
Magnetic Variation 7.318° W
Sunrise 2017-12-18 11:48:37 UTC / 2017-12-18 06:48:37 Local
Sunset 2017-12-18 22:34:09 UTC / 2017-12-18 17:34:09 Local
Advertisement - Login to hide

Runways

ID Width Length Bearing (true) Bearing (mag) Surface Threshold Offset Overrun Length
08 148 ft / 45 m 9,835 ft / 2,998 m 70.91° 78.23° Asphalt 0 ft / 0 m 0 ft / 0 m
26 148 ft / 45 m 9,835 ft / 2,998 m 250.92° 258.24° Asphalt 0 ft / 0 m 0 ft / 0 m

Approach Navaids

Runway Type Ident Frequency Range Bearing (true) Bearing (mag) Slope Elevation
08 Localiser ICJ 109.90 MHz 18 nm / 33 km 70.92° 78.24° - 13 ft / 4 m (AMSL)
08 Glidescope ICJ 109.90 MHz 10 nm / 19 km 70.92° 78.24° 3.00° 98 ft / 30 m (AMSL)

Map

Weather


0- 5 10 15 20 25 30 35+ Temperature / ° C

Clouds and Precipitation
Forecast for 2017-12-18 18:00 UTC. Updated 2 hours ago

Ground ~20,000 ft ~40,000 ft Winds

METAR

MUCC 181452Z 08016KT 9000 FEW020 27/22 Q1022

TAF

Not found

Frequencies

Tower 118.80 MHz APP/TWR
Warning: Do not use this data for real-world aviation or navigation. No guarantee of current accuracy is given.